sensor_id;sensor_type;location;lat;lon;timestamp;P1;durP1;ratioP1;P2;durP2;ratioP2
16101;SDS011;56411;52.964;10.540;2023-08-24T00:02:01;10.77;;;5.43;;
16101;SDS011;56411;52.964;10.540;2023-08-24T00:04:28;10.63;;;5.10;;
16101;SDS011;56411;52.964;10.540;2023-08-24T00:06:55;9.52;;;5.07;;
16101;SDS011;56411;52.964;10.540;2023-08-24T00:09:22;10.25;;;5.30;;
16101;SDS011;56411;52.964;10.540;2023-08-24T00:11:49;10.80;;;5.55;;
16101;SDS011;56411;52.964;10.540;2023-08-24T00:14:20;9.25;;;5.22;;
16101;SDS011;56411;52.964;10.540;2023-08-24T00:16:47;10.20;;;5.18;;
16101;SDS011;56411;52.964;10.540;2023-08-24T00:19:14;11.35;;;5.85;;
16101;SDS011;56411;52.964;10.540;2023-08-24T00:21:41;10.25;;;5.80;;
16101;SDS011;56411;52.964;10.540;2023-08-24T00:24:08;9.50;;;5.38;;
16101;SDS011;56411;52.964;10.540;2023-08-24T00:26:35;10.73;;;5.57;;
16101;SDS011;56411;52.964;10.540;2023-08-24T00:29:03;10.68;;;5.63;;
16101;SDS011;56411;52.964;10.540;2023-08-24T00:31:31;9.60;;;5.43;;
16101;SDS011;56411;52.964;10.540;2023-08-24T00:33:58;11.25;;;5.43;;
16101;SDS011;56411;52.964;10.540;2023-08-24T00:36:26;10.07;;;5.45;;
16101;SDS011;56411;52.964;10.540;2023-08-24T00:38:53;9.95;;;5.68;;
16101;SDS011;56411;52.964;10.540;2023-08-24T00:41:20;12.93;;;5.85;;
16101;SDS011;56411;52.964;10.540;2023-08-24T00:43:48;10.23;;;5.25;;
16101;SDS011;56411;52.964;10.540;2023-08-24T00:46:15;12.07;;;5.18;;
16101;SDS011;56411;52.964;10.540;2023-08-24T00:48:44;10.23;;;5.75;;
16101;SDS011;56411;52.964;10.540;2023-08-24T00:51:12;10.50;;;5.47;;
16101;SDS011;56411;52.964;10.540;2023-08-24T00:53:39;10.90;;;5.68;;
16101;SDS011;56411;52.964;10.540;2023-08-24T00:56:06;10.27;;;5.70;;
16101;SDS011;56411;52.964;10.540;2023-08-24T00:58:33;12.38;;;5.88;;
16101;SDS011;56411;52.964;10.540;2023-08-24T01:01:00;12.32;;;6.03;;
16101;SDS011;56411;52.964;10.540;2023-08-24T01:03:28;11.60;;;6.22;;
16101;SDS011;56411;52.964;10.540;2023-08-24T01:05:57;9.75;;;5.50;;
16101;SDS011;56411;52.964;10.540;2023-08-24T01:08:24;10.68;;;5.68;;
16101;SDS011;56411;52.964;10.540;2023-08-24T01:10:54;9.93;;;5.40;;
16101;SDS011;56411;52.964;10.540;2023-08-24T01:13:27;10.70;;;5.60;;
16101;SDS011;56411;52.964;10.540;2023-08-24T01:16:01;12.80;;;6.00;;
16101;SDS011;56411;52.964;10.540;2023-08-24T01:18:34;10.75;;;5.70;;
16101;SDS011;56411;52.964;10.540;2023-08-24T01:21:03;11.15;;;5.93;;
16101;SDS011;56411;52.964;10.540;2023-08-24T01:23:33;11.73;;;5.88;;
16101;SDS011;56411;52.964;10.540;2023-08-24T01:26:11;12.52;;;6.00;;
16101;SDS011;56411;52.964;10.540;2023-08-24T01:28:39;10.90;;;5.70;;
16101;SDS011;56411;52.964;10.540;2023-08-24T01:31:08;11.30;;;6.25;;
16101;SDS011;56411;52.964;10.540;2023-08-24T01:33:35;10.82;;;5.85;;
16101;SDS011;56411;52.964;10.540;2023-08-24T01:36:03;9.48;;;5.68;;
16101;SDS011;56411;52.964;10.540;2023-08-24T01:38:30;10.00;;;5.88;;
16101;SDS011;56411;52.964;10.540;2023-08-24T01:40:59;10.75;;;5.80;;
16101;SDS011;56411;52.964;10.540;2023-08-24T01:43:36;10.57;;;5.50;;
16101;SDS011;56411;52.964;10.540;2023-08-24T01:46:05;11.73;;;5.88;;
16101;SDS011;56411;52.964;10.540;2023-08-24T01:48:34;11.50;;;6.00;;
16101;SDS011;56411;52.964;10.540;2023-08-24T01:51:02;9.77;;;5.68;;
16101;SDS011;56411;52.964;10.540;2023-08-24T01:53:31;10.50;;;5.65;;
16101;SDS011;56411;52.964;10.540;2023-08-24T01:55:59;12.00;;;5.90;;
16101;SDS011;56411;52.964;10.540;2023-08-24T01:58:26;11.80;;;6.40;;
16101;SDS011;56411;52.964;10.540;2023-08-24T02:00:54;11.57;;;5.95;;
16101;SDS011;56411;52.964;10.540;2023-08-24T02:03:21;10.70;;;6.30;;
16101;SDS011;56411;52.964;10.540;2023-08-24T02:05:48;12.13;;;6.38;;
16101;SDS011;56411;52.964;10.540;2023-08-24T02:08:16;11.10;;;6.18;;
16101;SDS011;56411;52.964;10.540;2023-08-24T02:10:43;11.43;;;6.13;;
16101;SDS011;56411;52.964;10.540;2023-08-24T02:13:10;10.45;;;6.22;;
16101;SDS011;56411;52.964;10.540;2023-08-24T02:15:37;10.30;;;5.97;;
16101;SDS011;56411;52.964;10.540;2023-08-24T02:18:07;12.48;;;6.53;;
16101;SDS011;56411;52.964;10.540;2023-08-24T02:20:35;12.13;;;6.28;;
16101;SDS011;56411;52.964;10.540;2023-08-24T02:23:02;10.75;;;6.30;;
16101;SDS011;56411;52.964;10.540;2023-08-24T02:25:29;10.95;;;6.82;;
16101;SDS011;56411;52.964;10.540;2023-08-24T02:27:56;13.13;;;6.85;;
16101;SDS011;56411;52.964;10.540;2023-08-24T02:30:24;14.55;;;7.72;;
16101;SDS011;56411;52.964;10.540;2023-08-24T02:32:51;13.10;;;7.43;;
16101;SDS011;56411;52.964;10.540;2023-08-24T02:35:20;13.02;;;7.80;;
16101;SDS011;56411;52.964;10.540;2023-08-24T02:37:47;12.45;;;7.47;;
16101;SDS011;56411;52.964;10.540;2023-08-24T02:40:14;12.25;;;7.60;;
16101;SDS011;56411;52.964;10.540;2023-08-24T02:42:41;11.75;;;7.72;;
16101;SDS011;56411;52.964;10.540;2023-08-24T02:45:09;11.75;;;7.60;;
16101;SDS011;56411;52.964;10.540;2023-08-24T02:47:36;12.32;;;7.47;;
16101;SDS011;56411;52.964;10.540;2023-08-24T02:50:04;12.25;;;7.25;;
16101;SDS011;56411;52.964;10.540;2023-08-24T02:52:34;12.52;;;7.85;;
16101;SDS011;56411;52.964;10.540;2023-08-24T02:55:01;13.05;;;7.00;;
16101;SDS011;56411;52.964;10.540;2023-08-24T02:57:28;13.02;;;7.28;;
16101;SDS011;56411;52.964;10.540;2023-08-24T02:59:56;13.05;;;7.35;;
16101;SDS011;56411;52.964;10.540;2023-08-24T03:02:23;12.05;;;6.80;;
16101;SDS011;56411;52.964;10.540;2023-08-24T03:04:50;11.88;;;6.78;;
16101;SDS011;56411;52.964;10.540;2023-08-24T03:07:17;10.43;;;6.15;;
16101;SDS011;56411;52.964;10.540;2023-08-24T03:09:45;13.65;;;7.65;;
16101;SDS011;56411;52.964;10.540;2023-08-24T03:12:13;13.98;;;7.30;;
16101;SDS011;56411;52.964;10.540;2023-08-24T03:14:40;13.15;;;7.57;;
16101;SDS011;56411;52.964;10.540;2023-08-24T03:17:08;14.60;;;7.57;;
16101;SDS011;56411;52.964;10.540;2023-08-24T03:19:35;12.68;;;7.13;;
16101;SDS011;56411;52.964;10.540;2023-08-24T03:22:02;16.15;;;7.50;;
16101;SDS011;56411;52.964;10.540;2023-08-24T03:24:30;13.52;;;7.50;;
16101;SDS011;56411;52.964;10.540;2023-08-24T03:26:58;12.52;;;7.03;;
16101;SDS011;56411;52.964;10.540;2023-08-24T03:29:25;12.18;;;7.20;;
16101;SDS011;56411;52.964;10.540;2023-08-24T03:31:52;12.82;;;7.50;;
16101;SDS011;56411;52.964;10.540;2023-08-24T03:34:19;11.98;;;7.32;;
16101;SDS011;56411;52.964;10.540;2023-08-24T03:36:46;13.65;;;7.32;;
16101;SDS011;56411;52.964;10.540;2023-08-24T03:39:22;14.00;;;7.78;;
16101;SDS011;56411;52.964;10.540;2023-08-24T03:41:49;13.93;;;7.55;;
16101;SDS011;56411;52.964;10.540;2023-08-24T03:44:17;16.35;;;7.68;;
16101;SDS011;56411;52.964;10.540;2023-08-24T03:46:45;12.65;;;7.78;;
16101;SDS011;56411;52.964;10.540;2023-08-24T03:49:12;12.00;;;7.88;;
16101;SDS011;56411;52.964;10.540;2023-08-24T03:51:39;14.23;;;8.45;;
16101;SDS011;56411;52.964;10.540;2023-08-24T03:54:06;13.65;;;8.65;;
16101;SDS011;56411;52.964;10.540;2023-08-24T03:56:34;13.40;;;8.77;;
16101;SDS011;56411;52.964;10.540;2023-08-24T03:59:01;12.73;;;8.55;;
16101;SDS011;56411;52.964;10.540;2023-08-24T04:01:29;13.02;;;8.48;;
16101;SDS011;56411;52.964;10.540;2023-08-24T04:03:57;12.32;;;7.78;;
16101;SDS011;56411;52.964;10.540;2023-08-24T04:06:24;13.23;;;7.63;;
16101;SDS011;56411;52.964;10.540;2023-08-24T04:08:51;11.13;;;7.03;;
16101;SDS011;56411;52.964;10.540;2023-08-24T04:11:18;12.40;;;6.80;;
16101;SDS011;56411;52.964;10.540;2023-08-24T04:13:45;12.05;;;6.78;;
16101;SDS011;56411;52.964;10.540;2023-08-24T04:16:12;12.32;;;6.30;;
16101;SDS011;56411;52.964;10.540;2023-08-24T04:18:41;11.45;;;7.18;;
16101;SDS011;56411;52.964;10.540;2023-08-24T04:21:08;12.55;;;7.10;;
16101;SDS011;56411;52.964;10.540;2023-08-24T04:23:35;11.45;;;7.05;;
16101;SDS011;56411;52.964;10.540;2023-08-24T04:26:02;12.35;;;7.55;;
16101;SDS011;56411;52.964;10.540;2023-08-24T04:28:32;11.10;;;7.22;;
16101;SDS011;56411;52.964;10.540;2023-08-24T04:30:59;11.98;;;7.78;;
16101;SDS011;56411;52.964;10.540;2023-08-24T04:33:26;13.27;;;7.78;;
16101;SDS011;56411;52.964;10.540;2023-08-24T04:35:55;12.95;;;7.72;;
16101;SDS011;56411;52.964;10.540;2023-08-24T04:38:22;11.93;;;6.82;;
16101;SDS011;56411;52.964;10.540;2023-08-24T04:40:50;14.70;;;8.23;;
16101;SDS011;56411;52.964;10.540;2023-08-24T04:43:18;12.40;;;7.45;;
16101;SDS011;56411;52.964;10.540;2023-08-24T04:45:46;15.60;;;7.93;;
16101;SDS011;56411;52.964;10.540;2023-08-24T04:48:17;15.52;;;8.50;;
16101;SDS011;56411;52.964;10.540;2023-08-24T04:50:44;14.85;;;8.38;;
16101;SDS011;56411;52.964;10.540;2023-08-24T04:53:14;13.73;;;8.43;;
16101;SDS011;56411;52.964;10.540;2023-08-24T04:55:43;13.85;;;7.90;;
16101;SDS011;56411;52.964;10.540;2023-08-24T04:58:11;15.32;;;8.73;;
16101;SDS011;56411;52.964;10.540;2023-08-24T05:00:38;14.38;;;8.32;;
16101;SDS011;56411;52.964;10.540;2023-08-24T05:03:06;15.38;;;8.27;;
16101;SDS011;56411;52.964;10.540;2023-08-24T05:05:34;14.48;;;8.25;;
16101;SDS011;56411;52.964;10.540;2023-08-24T05:08:03;13.13;;;8.20;;
16101;SDS011;56411;52.964;10.540;2023-08-24T05:10:36;14.13;;;8.13;;
16101;SDS011;56411;52.964;10.540;2023-08-24T05:13:04;14.68;;;8.27;;
16101;SDS011;56411;52.964;10.540;2023-08-24T05:15:31;12.65;;;8.00;;
16101;SDS011;56411;52.964;10.540;2023-08-24T05:17:58;13.73;;;8.07;;
16101;SDS011;56411;52.964;10.540;2023-08-24T05:20:25;12.07;;;7.95;;
16101;SDS011;56411;52.964;10.540;2023-08-24T05:22:53;14.10;;;7.68;;
16101;SDS011;56411;52.964;10.540;2023-08-24T05:25:21;12.75;;;7.53;;
16101;SDS011;56411;52.964;10.540;2023-08-24T05:27:50;12.88;;;7.50;;
16101;SDS011;56411;52.964;10.540;2023-08-24T05:30:17;12.07;;;7.25;;
16101;SDS011;56411;52.964;10.540;2023-08-24T05:32:44;11.30;;;7.10;;
16101;SDS011;56411;52.964;10.540;2023-08-24T05:35:11;11.73;;;7.32;;
16101;SDS011;56411;52.964;10.540;2023-08-24T05:37:38;11.52;;;7.00;;
16101;SDS011;56411;52.964;10.540;2023-08-24T05:40:06;15.07;;;7.22;;
16101;SDS011;56411;52.964;10.540;2023-08-24T05:42:34;11.32;;;6.63;;
16101;SDS011;56411;52.964;10.540;2023-08-24T05:45:03;11.70;;;7.32;;
16101;SDS011;56411;52.964;10.540;2023-08-24T05:47:31;14.57;;;6.72;;
16101;SDS011;56411;52.964;10.540;2023-08-24T05:49:58;11.38;;;6.75;;
16101;SDS011;56411;52.964;10.540;2023-08-24T05:52:25;12.75;;;6.80;;
16101;SDS011;56411;52.964;10.540;2023-08-24T05:54:53;13.68;;;6.93;;
16101;SDS011;56411;52.964;10.540;2023-08-24T05:57:20;12.73;;;7.47;;
16101;SDS011;56411;52.964;10.540;2023-08-24T05:59:47;12.57;;;7.38;;
16101;SDS011;56411;52.964;10.540;2023-08-24T06:02:16;13.70;;;7.57;;
16101;SDS011;56411;52.964;10.540;2023-08-24T06:04:42;11.85;;;6.88;;
16101;SDS011;56411;52.964;10.540;2023-08-24T06:07:10;13.73;;;7.30;;
16101;SDS011;56411;52.964;10.540;2023-08-24T06:09:37;13.50;;;6.85;;
16101;SDS011;56411;52.964;10.540;2023-08-24T06:12:04;12.55;;;6.88;;
16101;SDS011;56411;52.964;10.540;2023-08-24T06:14:32;12.23;;;6.80;;
16101;SDS011;56411;52.964;10.540;2023-08-24T06:17:00;12.43;;;6.85;;
16101;SDS011;56411;52.964;10.540;2023-08-24T06:19:28;13.30;;;6.95;;
16101;SDS011;56411;52.964;10.540;2023-08-24T06:21:55;12.15;;;7.18;;
16101;SDS011;56411;52.964;10.540;2023-08-24T06:24:23;12.85;;;7.75;;
16101;SDS011;56411;52.964;10.540;2023-08-24T06:26:50;12.15;;;7.45;;
16101;SDS011;56411;52.964;10.540;2023-08-24T06:29:17;12.85;;;7.30;;
16101;SDS011;56411;52.964;10.540;2023-08-24T06:31:44;14.05;;;7.90;;
16101;SDS011;56411;52.964;10.540;2023-08-24T06:34:11;13.63;;;8.50;;
16101;SDS011;56411;52.964;10.540;2023-08-24T06:36:40;11.85;;;7.70;;
16101;SDS011;56411;52.964;10.540;2023-08-24T06:39:07;12.85;;;8.13;;
16101;SDS011;56411;52.964;10.540;2023-08-24T06:41:35;14.73;;;8.15;;
16101;SDS011;56411;52.964;10.540;2023-08-24T06:44:02;14.70;;;8.35;;
16101;SDS011;56411;52.964;10.540;2023-08-24T06:46:29;15.30;;;9.48;;
16101;SDS011;56411;52.964;10.540;2023-08-24T06:48:56;16.10;;;9.68;;
16101;SDS011;56411;52.964;10.540;2023-08-24T06:51:24;13.25;;;8.82;;
16101;SDS011;56411;52.964;10.540;2023-08-24T06:53:53;15.43;;;8.93;;
16101;SDS011;56411;52.964;10.540;2023-08-24T06:56:20;14.27;;;8.95;;
16101;SDS011;56411;52.964;10.540;2023-08-24T06:58:48;14.02;;;9.05;;
16101;SDS011;56411;52.964;10.540;2023-08-24T07:01:15;16.67;;;10.57;;
16101;SDS011;56411;52.964;10.540;2023-08-24T07:03:42;15.98;;;10.93;;
16101;SDS011;56411;52.964;10.540;2023-08-24T07:06:09;15.05;;;10.25;;
16101;SDS011;56411;52.964;10.540;2023-08-24T07:08:37;14.30;;;9.40;;
16101;SDS011;56411;52.964;10.540;2023-08-24T07:11:06;15.00;;;9.82;;
16101;SDS011;56411;52.964;10.540;2023-08-24T07:13:33;15.02;;;8.40;;
16101;SDS011;56411;52.964;10.540;2023-08-24T07:16:01;12.93;;;6.68;;
16101;SDS011;56411;52.964;10.540;2023-08-24T07:18:29;14.05;;;6.43;;
16101;SDS011;56411;52.964;10.540;2023-08-24T07:20:56;11.50;;;6.00;;
16101;SDS011;56411;52.964;10.540;2023-08-24T07:23:23;12.25;;;6.25;;
16101;SDS011;56411;52.964;10.540;2023-08-24T07:25:51;12.15;;;5.80;;
16101;SDS011;56411;52.964;10.540;2023-08-24T07:28:20;14.77;;;6.05;;
16101;SDS011;56411;52.964;10.540;2023-08-24T07:30:47;13.55;;;5.60;;
16101;SDS011;56411;52.964;10.540;2023-08-24T07:33:14;10.77;;;5.07;;
16101;SDS011;56411;52.964;10.540;2023-08-24T07:35:42;12.13;;;5.63;;
16101;SDS011;56411;52.964;10.540;2023-08-24T07:38:09;10.35;;;6.13;;
16101;SDS011;56411;52.964;10.540;2023-08-24T07:40:36;13.20;;;6.40;;
16101;SDS011;56411;52.964;10.540;2023-08-24T07:43:03;12.25;;;6.20;;
16101;SDS011;56411;52.964;10.540;2023-08-24T07:45:32;12.45;;;6.00;;
16101;SDS011;56411;52.964;10.540;2023-08-24T07:48:00;13.63;;;6.25;;
16101;SDS011;56411;52.964;10.540;2023-08-24T07:50:27;12.32;;;5.72;;
16101;SDS011;56411;52.964;10.540;2023-08-24T07:52:55;10.98;;;5.50;;
16101;SDS011;56411;52.964;10.540;2023-08-24T07:55:23;11.57;;;5.10;;
16101;SDS011;56411;52.964;10.540;2023-08-24T07:57:50;10.32;;;5.20;;
16101;SDS011;56411;52.964;10.540;2023-08-24T08:00:18;11.43;;;5.30;;
16101;SDS011;56411;52.964;10.540;2023-08-24T08:02:46;11.77;;;5.50;;
16101;SDS011;56411;52.964;10.540;2023-08-24T08:05:16;11.57;;;4.68;;
16101;SDS011;56411;52.964;10.540;2023-08-24T08:07:43;10.00;;;4.97;;
16101;SDS011;56411;52.964;10.540;2023-08-24T08:10:10;10.98;;;5.03;;
16101;SDS011;56411;52.964;10.540;2023-08-24T08:12:37;11.15;;;5.43;;
16101;SDS011;56411;52.964;10.540;2023-08-24T08:15:05;11.07;;;5.32;;
16101;SDS011;56411;52.964;10.540;2023-08-24T08:17:32;12.88;;;5.15;;
16101;SDS011;56411;52.964;10.540;2023-08-24T08:20:01;10.18;;;4.80;;
16101;SDS011;56411;52.964;10.540;2023-08-24T08:22:29;8.60;;;4.28;;
16101;SDS011;56411;52.964;10.540;2023-08-24T08:25:00;11.48;;;4.60;;
16101;SDS011;56411;52.964;10.540;2023-08-24T08:27:28;9.65;;;4.43;;
16101;SDS011;56411;52.964;10.540;2023-08-24T08:29:55;9.93;;;4.70;;
16101;SDS011;56411;52.964;10.540;2023-08-24T08:32:22;9.95;;;4.63;;
16101;SDS011;56411;52.964;10.540;2023-08-24T08:34:52;9.90;;;3.80;;
16101;SDS011;56411;52.964;10.540;2023-08-24T08:37:21;10.50;;;3.95;;
16101;SDS011;56411;52.964;10.540;2023-08-24T08:39:48;9.35;;;4.22;;
16101;SDS011;56411;52.964;10.540;2023-08-24T08:42:15;9.55;;;4.05;;
16101;SDS011;56411;52.964;10.540;2023-08-24T08:44:46;12.20;;;4.72;;
16101;SDS011;56411;52.964;10.540;2023-08-24T08:47:14;9.75;;;4.25;;
16101;SDS011;56411;52.964;10.540;2023-08-24T08:49:43;8.63;;;3.65;;
16101;SDS011;56411;52.964;10.540;2023-08-24T08:52:11;10.25;;;4.22;;
16101;SDS011;56411;52.964;10.540;2023-08-24T08:54:40;9.00;;;4.00;;
16101;SDS011;56411;52.964;10.540;2023-08-24T08:57:07;7.82;;;3.63;;
16101;SDS011;56411;52.964;10.540;2023-08-24T08:59:34;8.82;;;3.90;;
16101;SDS011;56411;52.964;10.540;2023-08-24T09:02:03;8.95;;;3.90;;
16101;SDS011;56411;52.964;10.540;2023-08-24T09:04:31;9.30;;;4.18;;
16101;SDS011;56411;52.964;10.540;2023-08-24T09:06:59;8.05;;;4.00;;
16101;SDS011;56411;52.964;10.540;2023-08-24T09:09:29;9.43;;;4.22;;
16101;SDS011;56411;52.964;10.540;2023-08-24T09:11:58;9.18;;;4.00;;
16101;SDS011;56411;52.964;10.540;2023-08-24T09:14:26;8.63;;;3.90;;
16101;SDS011;56411;52.964;10.540;2023-08-24T09:16:53;8.88;;;4.05;;
16101;SDS011;56411;52.964;10.540;2023-08-24T09:19:20;8.45;;;3.75;;
16101;SDS011;56411;52.964;10.540;2023-08-24T09:21:56;6.30;;;3.28;;
16101;SDS011;56411;52.964;10.540;2023-08-24T09:24:28;9.95;;;4.28;;
16101;SDS011;56411;52.964;10.540;2023-08-24T09:26:59;9.55;;;3.67;;
16101;SDS011;56411;52.964;10.540;2023-08-24T09:29:26;8.63;;;3.58;;
16101;SDS011;56411;52.964;10.540;2023-08-24T09:31:56;8.55;;;4.15;;
16101;SDS011;56411;52.964;10.540;2023-08-24T09:34:24;8.35;;;4.10;;
16101;SDS011;56411;52.964;10.540;2023-08-24T09:36:52;9.23;;;4.00;;
16101;SDS011;56411;52.964;10.540;2023-08-24T09:39:20;7.40;;;3.28;;
16101;SDS011;56411;52.964;10.540;2023-08-24T09:41:48;7.97;;;3.35;;
16101;SDS011;56411;52.964;10.540;2023-08-24T09:44:18;8.05;;;3.40;;
16101;SDS011;56411;52.964;10.540;2023-08-24T09:46:45;8.43;;;3.80;;
16101;SDS011;56411;52.964;10.540;2023-08-24T09:49:12;9.15;;;3.95;;
16101;SDS011;56411;52.964;10.540;2023-08-24T09:51:40;8.02;;;3.72;;
16101;SDS011;56411;52.964;10.540;2023-08-24T09:54:09;10.13;;;4.47;;
16101;SDS011;56411;52.964;10.540;2023-08-24T09:56:39;7.30;;;3.65;;
16101;SDS011;56411;52.964;10.540;2023-08-24T09:59:10;8.07;;;3.72;;
16101;SDS011;56411;52.964;10.540;2023-08-24T10:01:42;7.97;;;3.72;;
16101;SDS011;56411;52.964;10.540;2023-08-24T10:04:11;8.57;;;3.97;;
16101;SDS011;56411;52.964;10.540;2023-08-24T10:10:06;8.05;;;3.60;;
16101;SDS011;56411;52.964;10.540;2023-08-24T10:12:41;9.05;;;3.40;;
16101;SDS011;56411;52.964;10.540;2023-08-24T10:15:13;8.48;;;3.80;;
16101;SDS011;56411;52.964;10.540;2023-08-24T10:17:44;8.38;;;3.60;;
16101;SDS011;56411;52.964;10.540;2023-08-24T10:20:11;7.50;;;3.50;;
16101;SDS011;56411;52.964;10.540;2023-08-24T10:22:40;7.75;;;3.25;;
16101;SDS011;56411;52.964;10.540;2023-08-24T10:25:09;6.25;;;3.33;;
16101;SDS011;56411;52.964;10.540;2023-08-24T10:27:37;8.15;;;3.72;;
16101;SDS011;56411;52.964;10.540;2023-08-24T10:30:09;7.15;;;3.42;;
16101;SDS011;56411;52.964;10.540;2023-08-24T10:32:51;6.38;;;3.08;;
16101;SDS011;56411;52.964;10.540;2023-08-24T10:38:46;7.57;;;3.38;;
16101;SDS011;56411;52.964;10.540;2023-08-24T10:41:13;6.28;;;3.20;;
16101;SDS011;56411;52.964;10.540;2023-08-24T10:43:41;5.97;;;3.05;;
16101;SDS011;56411;52.964;10.540;2023-08-24T10:46:16;7.10;;;2.97;;
16101;SDS011;56411;52.964;10.540;2023-08-24T10:49:03;8.63;;;3.15;;
16101;SDS011;56411;52.964;10.540;2023-08-24T10:51:42;8.52;;;3.58;;
16101;SDS011;56411;52.964;10.540;2023-08-24T10:54:11;5.97;;;3.15;;
16101;SDS011;56411;52.964;10.540;2023-08-24T10:56:47;5.80;;;3.15;;
16101;SDS011;56411;52.964;10.540;2023-08-24T10:59:19;8.27;;;3.40;;
16101;SDS011;56411;52.964;10.540;2023-08-24T11:01:54;7.60;;;3.25;;
16101;SDS011;56411;52.964;10.540;2023-08-24T11:04:25;4.80;;;2.92;;
16101;SDS011;56411;52.964;10.540;2023-08-24T11:07:46;6.55;;;3.00;;
16101;SDS011;56411;52.964;10.540;2023-08-24T11:10:16;5.72;;;3.00;;
16101;SDS011;56411;52.964;10.540;2023-08-24T11:13:07;5.82;;;2.90;;
16101;SDS011;56411;52.964;10.540;2023-08-24T11:15:38;6.22;;;3.00;;
16101;SDS011;56411;52.964;10.540;2023-08-24T11:21:01;7.07;;;3.10;;
16101;SDS011;56411;52.964;10.540;2023-08-24T11:23:30;5.43;;;2.83;;
16101;SDS011;56411;52.964;10.540;2023-08-24T11:25:59;5.60;;;2.80;;
16101;SDS011;56411;52.964;10.540;2023-08-24T11:28:28;7.03;;;3.10;;
16101;SDS011;56411;52.964;10.540;2023-08-24T11:30:57;7.63;;;2.80;;
16101;SDS011;56411;52.964;10.540;2023-08-24T11:33:28;5.88;;;3.03;;
16101;SDS011;56411;52.964;10.540;2023-08-24T11:35:56;5.75;;;2.60;;
16101;SDS011;56411;52.964;10.540;2023-08-24T11:38:27;4.97;;;2.75;;
16101;SDS011;56411;52.964;10.540;2023-08-24T11:41:09;6.50;;;2.70;;
16101;SDS011;56411;52.964;10.540;2023-08-24T11:43:38;6.05;;;2.85;;
16101;SDS011;56411;52.964;10.540;2023-08-24T11:46:05;6.97;;;2.80;;
16101;SDS011;56411;52.964;10.540;2023-08-24T11:48:32;7.25;;;2.65;;
16101;SDS011;56411;52.964;10.540;2023-08-24T11:51:01;6.53;;;2.80;;
16101;SDS011;56411;52.964;10.540;2023-08-24T11:53:30;4.07;;;2.40;;
16101;SDS011;56411;52.964;10.540;2023-08-24T11:55:59;5.45;;;2.70;;
16101;SDS011;56411;52.964;10.540;2023-08-24T11:58:27;6.55;;;2.42;;
16101;SDS011;56411;52.964;10.540;2023-08-24T12:00:54;4.10;;;2.47;;
16101;SDS011;56411;52.964;10.540;2023-08-24T12:03:22;6.10;;;2.47;;
16101;SDS011;56411;52.964;10.540;2023-08-24T12:05:49;7.10;;;2.60;;
16101;SDS011;56411;52.964;10.540;2023-08-24T12:08:17;3.88;;;2.50;;
16101;SDS011;56411;52.964;10.540;2023-08-24T12:14:16;6.10;;;2.50;;
16101;SDS011;56411;52.964;10.540;2023-08-24T12:16:45;4.72;;;2.80;;
16101;SDS011;56411;52.964;10.540;2023-08-24T12:22:42;4.78;;;2.55;;
16101;SDS011;56411;52.964;10.540;2023-08-24T12:25:13;6.82;;;2.60;;
16101;SDS011;56411;52.964;10.540;2023-08-24T12:30:54;5.50;;;2.70;;
16101;SDS011;56411;52.964;10.540;2023-08-24T12:45:26;6.57;;;3.00;;
16101;SDS011;56411;52.964;10.540;2023-08-24T12:48:03;5.97;;;2.70;;
16101;SDS011;56411;52.964;10.540;2023-08-24T13:07:10;4.97;;;2.60;;
16101;SDS011;56411;52.964;10.540;2023-08-24T13:09:37;4.13;;;2.55;;
16101;SDS011;56411;52.964;10.540;2023-08-24T13:12:13;7.90;;;2.45;;
16101;SDS011;56411;52.964;10.540;2023-08-24T13:14:40;3.92;;;2.42;;
16101;SDS011;56411;52.964;10.540;2023-08-24T13:17:07;5.43;;;2.50;;
16101;SDS011;56411;52.964;10.540;2023-08-24T13:19:39;5.43;;;2.33;;
16101;SDS011;56411;52.964;10.540;2023-08-24T13:22:06;6.00;;;2.90;;
16101;SDS011;56411;52.964;10.540;2023-08-24T13:24:35;7.35;;;3.05;;
16101;SDS011;56411;52.964;10.540;2023-08-24T13:27:08;6.63;;;2.72;;
16101;SDS011;56411;52.964;10.540;2023-08-24T13:29:35;4.13;;;2.55;;
16101;SDS011;56411;52.964;10.540;2023-08-24T13:32:05;5.78;;;2.70;;
16101;SDS011;56411;52.964;10.540;2023-08-24T13:34:32;4.15;;;2.55;;
16101;SDS011;56411;52.964;10.540;2023-08-24T13:36:59;5.55;;;2.80;;
16101;SDS011;56411;52.964;10.540;2023-08-24T13:39:27;4.07;;;2.38;;
16101;SDS011;56411;52.964;10.540;2023-08-24T13:41:57;5.03;;;2.83;;
16101;SDS011;56411;52.964;10.540;2023-08-24T13:44:25;6.80;;;2.63;;
16101;SDS011;56411;52.964;10.540;2023-08-24T13:46:52;6.15;;;2.80;;
16101;SDS011;56411;52.964;10.540;2023-08-24T13:49:20;6.00;;;2.90;;
16101;SDS011;56411;52.964;10.540;2023-08-24T13:51:51;5.38;;;2.65;;
16101;SDS011;56411;52.964;10.540;2023-08-24T13:54:18;6.65;;;2.67;;
16101;SDS011;56411;52.964;10.540;2023-08-24T13:59:42;4.75;;;2.80;;
16101;SDS011;56411;52.964;10.540;2023-08-24T14:02:10;6.43;;;2.92;;
16101;SDS011;56411;52.964;10.540;2023-08-24T14:04:38;5.43;;;2.50;;
16101;SDS011;56411;52.964;10.540;2023-08-24T14:07:05;6.38;;;2.88;;
16101;SDS011;56411;52.964;10.540;2023-08-24T14:09:32;6.03;;;2.80;;
16101;SDS011;56411;52.964;10.540;2023-08-24T14:12:03;5.00;;;2.90;;
16101;SDS011;56411;52.964;10.540;2023-08-24T14:14:31;6.78;;;3.00;;
16101;SDS011;56411;52.964;10.540;2023-08-24T14:16:58;4.80;;;2.70;;
16101;SDS011;56411;52.964;10.540;2023-08-24T14:19:25;5.72;;;3.00;;
16101;SDS011;56411;52.964;10.540;2023-08-24T14:21:53;5.90;;;3.10;;
16101;SDS011;56411;52.964;10.540;2023-08-24T14:24:21;5.20;;;3.05;;
16101;SDS011;56411;52.964;10.540;2023-08-24T14:26:48;8.40;;;3.05;;
16101;SDS011;56411;52.964;10.540;2023-08-24T14:29:17;7.63;;;2.90;;
16101;SDS011;56411;52.964;10.540;2023-08-24T14:31:44;5.32;;;2.80;;
16101;SDS011;56411;52.964;10.540;2023-08-24T14:34:14;5.93;;;3.03;;
16101;SDS011;56411;52.964;10.540;2023-08-24T14:36:42;6.75;;;2.85;;
16101;SDS011;56411;52.964;10.540;2023-08-24T14:39:10;5.20;;;2.92;;
16101;SDS011;56411;52.964;10.540;2023-08-24T14:41:38;6.57;;;3.22;;
16101;SDS011;56411;52.964;10.540;2023-08-24T14:44:06;4.63;;;3.10;;
16101;SDS011;56411;52.964;10.540;2023-08-24T14:46:35;6.00;;;2.83;;
16101;SDS011;56411;52.964;10.540;2023-08-24T14:49:03;6.25;;;3.05;;
16101;SDS011;56411;52.964;10.540;2023-08-24T14:51:31;4.90;;;2.90;;
16101;SDS011;56411;52.964;10.540;2023-08-24T14:53:58;5.90;;;2.90;;
16101;SDS011;56411;52.964;10.540;2023-08-24T14:56:25;7.05;;;2.83;;
16101;SDS011;56411;52.964;10.540;2023-08-24T14:58:53;5.72;;;2.90;;
16101;SDS011;56411;52.964;10.540;2023-08-24T15:01:20;4.47;;;2.75;;
16101;SDS011;56411;52.964;10.540;2023-08-24T15:03:50;5.43;;;2.83;;
16101;SDS011;56411;52.964;10.540;2023-08-24T15:06:17;4.97;;;3.00;;
16101;SDS011;56411;52.964;10.540;2023-08-24T15:08:44;5.75;;;2.90;;
16101;SDS011;56411;52.964;10.540;2023-08-24T15:11:13;6.30;;;3.03;;
16101;SDS011;56411;52.964;10.540;2023-08-24T15:13:41;4.55;;;2.90;;
16101;SDS011;56411;52.964;10.540;2023-08-24T15:16:09;4.63;;;2.78;;
16101;SDS011;56411;52.964;10.540;2023-08-24T15:18:36;7.07;;;3.10;;
16101;SDS011;56411;52.964;10.540;2023-08-24T15:21:05;4.95;;;2.88;;
16101;SDS011;56411;52.964;10.540;2023-08-24T15:23:33;6.68;;;2.95;;
16101;SDS011;56411;52.964;10.540;2023-08-24T15:26:00;5.60;;;2.90;;